sensor_id;sensor_type;location;lat;lon;timestamp;pressure;altitude;pressure_sealevel;temperature;humidity
48606;BME280;8482;54.396;18.590;2022-08-19T00:01:42;101071.09;;;22.89;85.05
48606;BME280;8482;54.396;18.590;2022-08-19T00:04:12;101068.38;;;22.89;84.95
48606;BME280;8482;54.396;18.590;2022-08-19T00:06:41;101065.66;;;22.89;85.09
48606;BME280;8482;54.396;18.590;2022-08-19T00:09:13;101071.28;;;22.88;85.10
48606;BME280;8482;54.396;18.590;2022-08-19T00:11:41;101064.38;;;22.85;85.30
48606;BME280;8482;54.396;18.590;2022-08-19T00:14:10;101065.41;;;22.84;85.23
48606;BME280;8482;54.396;18.590;2022-08-19T00:16:44;101060.00;;;22.84;85.39
48606;BME280;8482;54.396;18.590;2022-08-19T00:19:11;101069.34;;;22.81;85.33
48606;BME280;8482;54.396;18.590;2022-08-19T00:21:37;101071.41;;;22.79;85.57
48606;BME280;8482;54.396;18.590;2022-08-19T00:24:09;101068.91;;;22.78;85.60
48606;BME280;8482;54.396;18.590;2022-08-19T00:26:36;101073.47;;;22.77;85.66
48606;BME280;8482;54.396;18.590;2022-08-19T00:29:04;101076.59;;;22.74;85.74
48606;BME280;8482;54.396;18.590;2022-08-19T00:31:33;101078.44;;;22.74;85.73
48606;BME280;8482;54.396;18.590;2022-08-19T00:33:59;101084.88;;;22.73;85.64
48606;BME280;8482;54.396;18.590;2022-08-19T00:36:25;101077.13;;;22.70;85.91
48606;BME280;8482;54.396;18.590;2022-08-19T00:38:51;101076.31;;;22.69;85.89
48606;BME280;8482;54.396;18.590;2022-08-19T00:41:20;101083.59;;;22.69;85.97
48606;BME280;8482;54.396;18.590;2022-08-19T00:46:27;101084.63;;;22.68;86.23
48606;BME280;8482;54.396;18.590;2022-08-19T00:48:55;101091.06;;;22.67;86.14
48606;BME280;8482;54.396;18.590;2022-08-19T00:51:26;101092.34;;;22.71;86.14
48606;BME280;8482;54.396;18.590;2022-08-19T00:53:57;101081.50;;;22.71;85.89
48606;BME280;8482;54.396;18.590;2022-08-19T00:56:24;101084.44;;;22.69;85.81
48606;BME280;8482;54.396;18.590;2022-08-19T00:58:55;101087.78;;;22.71;85.71
48606;BME280;8482;54.396;18.590;2022-08-19T01:01:21;101090.47;;;22.71;85.64
48606;BME280;8482;54.396;18.590;2022-08-19T01:03:47;101089.63;;;22.71;85.60
48606;BME280;8482;54.396;18.590;2022-08-19T01:06:14;101105.22;;;22.69;85.73
48606;BME280;8482;54.396;18.590;2022-08-19T01:08:40;101093.56;;;22.68;85.69
48606;BME280;8482;54.396;18.590;2022-08-19T01:11:07;101093.56;;;22.68;86.00
48606;BME280;8482;54.396;18.590;2022-08-19T01:13:35;101091.88;;;22.67;86.29
48606;BME280;8482;54.396;18.590;2022-08-19T01:16:08;101095.44;;;22.68;86.09
48606;BME280;8482;54.396;18.590;2022-08-19T01:18:40;101083.34;;;22.63;86.07
48606;BME280;8482;54.396;18.590;2022-08-19T01:21:18;101084.16;;;22.64;86.26
48606;BME280;8482;54.396;18.590;2022-08-19T01:23:46;101084.38;;;22.62;86.50
48606;BME280;8482;54.396;18.590;2022-08-19T01:26:20;101080.19;;;22.60;86.37
48606;BME280;8482;54.396;18.590;2022-08-19T01:28:50;101086.63;;;22.59;86.53
48606;BME280;8482;54.396;18.590;2022-08-19T01:31:22;101089.69;;;22.56;86.55
48606;BME280;8482;54.396;18.590;2022-08-19T01:33:51;101092.59;;;22.54;86.43
48606;BME280;8482;54.396;18.590;2022-08-19T01:36:31;101085.09;;;22.49;86.52
48606;BME280;8482;54.396;18.590;2022-08-19T01:39:00;101087.59;;;22.51;86.79
48606;BME280;8482;54.396;18.590;2022-08-19T01:41:26;101086.72;;;22.50;86.63
48606;BME280;8482;54.396;18.590;2022-08-19T01:43:53;101079.47;;;22.51;87.13
48606;BME280;8482;54.396;18.590;2022-08-19T01:46:19;101074.28;;;22.49;86.92
48606;BME280;8482;54.396;18.590;2022-08-19T01:48:46;101071.56;;;22.49;87.20
48606;BME280;8482;54.396;18.590;2022-08-19T01:51:13;101075.66;;;22.45;87.22
48606;BME280;8482;54.396;18.590;2022-08-19T01:53:39;101080.06;;;22.46;87.27
48606;BME280;8482;54.396;18.590;2022-08-19T01:56:06;101081.91;;;22.46;87.38
48606;BME280;8482;54.396;18.590;2022-08-19T01:58:46;101074.19;;;22.43;87.22
48606;BME280;8482;54.396;18.590;2022-08-19T02:01:14;101083.94;;;22.44;87.39
48606;BME280;8482;54.396;18.590;2022-08-19T02:03:40;101078.94;;;22.41;87.33
48606;BME280;8482;54.396;18.590;2022-08-19T02:06:07;101082.66;;;22.40;87.31
48606;BME280;8482;54.396;18.590;2022-08-19T02:08:36;101088.06;;;22.40;87.32
48606;BME280;8482;54.396;18.590;2022-08-19T02:11:04;101074.28;;;22.34;87.29
48606;BME280;8482;54.396;18.590;2022-08-19T02:13:30;101076.16;;;22.34;87.43
48606;BME280;8482;54.396;18.590;2022-08-19T02:15:57;101078.84;;;22.34;87.29
48606;BME280;8482;54.396;18.590;2022-08-19T02:18:23;101073.81;;;22.31;87.21
48606;BME280;8482;54.396;18.590;2022-08-19T02:20:49;101073.19;;;22.29;87.41
48606;BME280;8482;54.396;18.590;2022-08-19T02:23:19;101074.19;;;22.28;87.30
48606;BME280;8482;54.396;18.590;2022-08-19T02:25:47;101077.28;;;22.25;87.25
48606;BME280;8482;54.396;18.590;2022-08-19T02:28:14;101068.56;;;22.23;87.29
48606;BME280;8482;54.396;18.590;2022-08-19T02:30:42;101068.72;;;22.21;87.38
48606;BME280;8482;54.396;18.590;2022-08-19T02:33:08;101070.78;;;22.19;87.53
48606;BME280;8482;54.396;18.590;2022-08-19T02:35:34;101071.81;;;22.18;87.46
48606;BME280;8482;54.396;18.590;2022-08-19T02:38:00;101061.41;;;22.15;87.60
48606;BME280;8482;54.396;18.590;2022-08-19T02:40:57;101067.19;;;22.12;87.36
48606;BME280;8482;54.396;18.590;2022-08-19T02:43:24;101064.66;;;22.10;87.63
48606;BME280;8482;54.396;18.590;2022-08-19T02:45:52;101063.81;;;22.10;87.57
48606;BME280;8482;54.396;18.590;2022-08-19T02:48:21;101062.34;;;22.07;87.40
48606;BME280;8482;54.396;18.590;2022-08-19T02:50:51;101067.91;;;22.05;87.25
48606;BME280;8482;54.396;18.590;2022-08-19T02:53:24;101071.63;;;22.04;87.27
48606;BME280;8482;54.396;18.590;2022-08-19T02:55:51;101072.03;;;22.01;87.54
48606;BME280;8482;54.396;18.590;2022-08-19T02:58:18;101073.72;;;22.02;87.40
48606;BME280;8482;54.396;18.590;2022-08-19T03:00:52;101078.28;;;22.02;87.61
48606;BME280;8482;54.396;18.590;2022-08-19T03:03:19;101079.13;;;22.02;87.55
48606;BME280;8482;54.396;18.590;2022-08-19T03:05:46;101079.28;;;22.01;87.42
48606;BME280;8482;54.396;18.590;2022-08-19T03:08:14;101078.28;;;22.02;87.50
48606;BME280;8482;54.396;18.590;2022-08-19T03:10:49;101071.19;;;22.01;87.26
48606;BME280;8482;54.396;18.590;2022-08-19T03:13:17;101080.53;;;21.98;87.17
48606;BME280;8482;54.396;18.590;2022-08-19T03:15:47;101075.13;;;21.98;87.34
48606;BME280;8482;54.396;18.590;2022-08-19T03:18:14;101077.16;;;21.96;87.31
48606;BME280;8482;54.396;18.590;2022-08-19T03:20:49;101074.47;;;21.96;87.33
48606;BME280;8482;54.396;18.590;2022-08-19T03:23:16;101072.13;;;21.93;87.52
48606;BME280;8482;54.396;18.590;2022-08-19T03:25:49;101078.19;;;21.95;87.23
48606;BME280;8482;54.396;18.590;2022-08-19T03:28:16;101080.06;;;21.95;87.40
48606;BME280;8482;54.396;18.590;2022-08-19T03:33:27;101079.88;;;21.96;87.77
48606;BME280;8482;54.396;18.590;2022-08-19T03:36:16;101082.94;;;21.93;87.43
48606;BME280;8482;54.396;18.590;2022-08-19T03:38:46;101092.34;;;21.97;87.57
48606;BME280;8482;54.396;18.590;2022-08-19T03:41:17;101079.88;;;21.96;87.81
48606;BME280;8482;54.396;18.590;2022-08-19T03:43:44;101076.72;;;21.93;88.07
48606;BME280;8482;54.396;18.590;2022-08-19T03:46:18;101079.88;;;21.96;87.78
48606;BME280;8482;54.396;18.590;2022-08-19T03:48:48;101071.09;;;21.94;87.79
48606;BME280;8482;54.396;18.590;2022-08-19T03:51:25;101077.38;;;21.95;87.66
48606;BME280;8482;54.396;18.590;2022-08-19T03:53:54;101077.53;;;21.93;87.77
48606;BME280;8482;54.396;18.590;2022-08-19T03:56:21;101079.59;;;21.91;87.74
48606;BME280;8482;54.396;18.590;2022-08-19T03:58:48;101074.59;;;21.88;87.99
48606;BME280;8482;54.396;18.590;2022-08-19T04:01:19;101076.63;;;21.86;87.58
48606;BME280;8482;54.396;18.590;2022-08-19T04:03:46;101077.28;;;21.88;88.06
48606;BME280;8482;54.396;18.590;2022-08-19T04:06:19;101077.28;;;21.88;87.94
48606;BME280;8482;54.396;18.590;2022-08-19T04:08:49;101083.06;;;21.85;87.88
48606;BME280;8482;54.396;18.590;2022-08-19T04:11:20;101088.44;;;21.85;87.79
48606;BME280;8482;54.396;18.590;2022-08-19T04:13:48;101084.91;;;21.84;87.95
48606;BME280;8482;54.396;18.590;2022-08-19T04:16:14;101092.19;;;21.84;87.99
48606;BME280;8482;54.396;18.590;2022-08-19T04:18:40;101093.84;;;21.85;88.04
48606;BME280;8482;54.396;18.590;2022-08-19T04:21:08;101088.44;;;21.85;88.06
48606;BME280;8482;54.396;18.590;2022-08-19T04:23:40;101090.94;;;21.86;88.09
48606;BME280;8482;54.396;18.590;2022-08-19T04:26:06;101086.97;;;21.82;88.01
48606;BME280;8482;54.396;18.590;2022-08-19T04:28:31;101088.66;;;21.83;88.20
48606;BME280;8482;54.396;18.590;2022-08-19T04:30:57;101090.31;;;21.84;88.12
48606;BME280;8482;54.396;18.590;2022-08-19T04:33:25;101091.97;;;21.85;88.12
48606;BME280;8482;54.396;18.590;2022-08-19T04:35:52;101085.56;;;21.86;88.06
48606;BME280;8482;54.396;18.590;2022-08-19T04:38:21;101081.81;;;21.87;88.36
48606;BME280;8482;54.396;18.590;2022-08-19T04:40:51;101083.50;;;21.88;88.49
48606;BME280;8482;54.396;18.590;2022-08-19T04:43:38;101085.38;;;21.88;88.29
48606;BME280;8482;54.396;18.590;2022-08-19T04:46:07;101079.13;;;21.87;88.04
48606;BME280;8482;54.396;18.590;2022-08-19T04:48:34;101081.66;;;21.89;88.04
48606;BME280;8482;54.396;18.590;2022-08-19T04:51:00;101085.19;;;21.89;87.72
48606;BME280;8482;54.396;18.590;2022-08-19T04:53:30;101084.81;;;21.93;87.89
48606;BME280;8482;54.396;18.590;2022-08-19T04:55:58;101086.50;;;21.94;87.60
48606;BME280;8482;54.396;18.590;2022-08-19T04:58:27;101086.94;;;21.97;87.38
48606;BME280;8482;54.396;18.590;2022-08-19T05:00:54;101084.91;;;21.99;87.24
48606;BME280;8482;54.396;18.590;2022-08-19T05:03:21;101091.78;;;22.02;87.25
48606;BME280;8482;54.396;18.590;2022-08-19T05:05:48;101093.66;;;22.01;87.27
48606;BME280;8482;54.396;18.590;2022-08-19T05:08:18;101099.13;;;22.08;86.96
48606;BME280;8482;54.396;18.590;2022-08-19T05:10:50;101098.75;;;22.11;87.32
48606;BME280;8482;54.396;18.590;2022-08-19T05:13:19;101100.03;;;22.15;87.50
48606;BME280;8482;54.396;18.590;2022-08-19T05:15:55;101096.97;;;22.18;87.59
48606;BME280;8482;54.396;18.590;2022-08-19T05:18:21;101101.78;;;22.23;87.57
48606;BME280;8482;54.396;18.590;2022-08-19T05:21:09;101102.25;;;22.27;87.73
48606;BME280;8482;54.396;18.590;2022-08-19T05:23:54;101086.69;;;22.29;87.76
48606;BME280;8482;54.396;18.590;2022-08-19T05:26:19;101094.03;;;22.35;87.67
48606;BME280;8482;54.396;18.590;2022-08-19T05:28:46;101088.44;;;22.37;87.49
48606;BME280;8482;54.396;18.590;2022-08-19T05:31:12;101081.47;;;22.42;87.18
48606;BME280;8482;54.396;18.590;2022-08-19T05:33:38;101089.19;;;22.45;87.05
48606;BME280;8482;54.396;18.590;2022-08-19T05:36:06;101096.91;;;22.48;86.74
48606;BME280;8482;54.396;18.590;2022-08-19T05:38:34;101096.50;;;22.52;86.15
48606;BME280;8482;54.396;18.590;2022-08-19T05:41:06;101095.47;;;22.53;85.36
48606;BME280;8482;54.396;18.590;2022-08-19T05:43:33;101095.47;;;22.53;84.89
48606;BME280;8482;54.396;18.590;2022-08-19T05:45:59;101096.78;;;22.57;84.65
48606;BME280;8482;54.396;18.590;2022-08-19T05:48:25;101115.13;;;22.61;84.21
48606;BME280;8482;54.396;18.590;2022-08-19T05:50:52;101114.75;;;22.64;84.00
48606;BME280;8482;54.396;18.590;2022-08-19T05:53:19;101114.38;;;22.68;83.79
48606;BME280;8482;54.396;18.590;2022-08-19T05:55:45;101111.25;;;22.71;83.37
48606;BME280;8482;54.396;18.590;2022-08-19T05:58:11;101112.56;;;22.75;83.18
48606;BME280;8482;54.396;18.590;2022-08-19T06:00:37;101118.63;;;22.77;83.15
48606;BME280;8482;54.396;18.590;2022-08-19T06:03:04;101120.28;;;22.78;82.98
48606;BME280;8482;54.396;18.590;2022-08-19T06:05:30;101114.09;;;22.84;82.72
48606;BME280;8482;54.396;18.590;2022-08-19T06:07:57;101128.25;;;22.86;82.55
48606;BME280;8482;54.396;18.590;2022-08-19T06:10:24;101119.13;;;22.87;82.47
48606;BME280;8482;54.396;18.590;2022-08-19T06:12:52;101127.13;;;22.95;82.17
48606;BME280;8482;54.396;18.590;2022-08-19T06:15:18;101132.97;;;22.99;82.42
48606;BME280;8482;54.396;18.590;2022-08-19T06:17:44;101119.25;;;23.01;81.90
48606;BME280;8482;54.396;18.590;2022-08-19T06:20:13;101121.19;;;23.07;81.54
48606;BME280;8482;54.396;18.590;2022-08-19T06:22:45;101114.16;;;23.13;81.37
48606;BME280;8482;54.396;18.590;2022-08-19T06:25:14;101116.25;;;23.17;81.24
48606;BME280;8482;54.396;18.590;2022-08-19T06:27:40;101117.38;;;23.23;80.83
48606;BME280;8482;54.396;18.590;2022-08-19T06:30:07;101112.22;;;23.28;80.65
48606;BME280;8482;54.396;18.590;2022-08-19T06:32:33;101120.56;;;23.33;80.40
48606;BME280;8482;54.396;18.590;2022-08-19T06:34:59;101118.94;;;23.39;80.01
48606;BME280;8482;54.396;18.590;2022-08-19T06:37:25;101124.16;;;23.40;79.77
48606;BME280;8482;54.396;18.590;2022-08-19T06:39:50;101117.78;;;23.48;79.12
48606;BME280;8482;54.396;18.590;2022-08-19T06:42:16;101126.13;;;23.53;78.60
48606;BME280;8482;54.396;18.590;2022-08-19T06:44:47;101118.25;;;23.59;77.87
48606;BME280;8482;54.396;18.590;2022-08-19T06:47:19;101115.75;;;23.64;77.55
48606;BME280;8482;54.396;18.590;2022-08-19T06:49:45;101110.59;;;23.69;77.08
48606;BME280;8482;54.396;18.590;2022-08-19T06:52:11;101107.28;;;23.73;76.61
48606;BME280;8482;54.396;18.590;2022-08-19T06:54:38;101107.72;;;23.77;76.19
48606;BME280;8482;54.396;18.590;2022-08-19T06:57:06;101107.75;;;23.84;75.62
48606;BME280;8482;54.396;18.590;2022-08-19T06:59:32;101104.25;;;23.90;75.01
48606;BME280;8482;54.396;18.590;2022-08-19T07:02:03;101107.00;;;23.97;74.49
48606;BME280;8482;54.396;18.590;2022-08-19T07:04:32;101094.53;;;24.02;73.95
48606;BME280;8482;54.396;18.590;2022-08-19T07:07:02;101094.78;;;24.08;73.76
48606;BME280;8482;54.396;18.590;2022-08-19T07:09:29;101102.72;;;24.16;73.69
48606;BME280;8482;54.396;18.590;2022-08-19T07:11:55;101102.72;;;24.23;73.51
48606;BME280;8482;54.396;18.590;2022-08-19T07:14:25;101097.34;;;24.29;73.13
48606;BME280;8482;54.396;18.590;2022-08-19T07:16:54;101104.22;;;24.39;72.98
48606;BME280;8482;54.396;18.590;2022-08-19T07:19:23;101105.09;;;24.46;72.73
48606;BME280;8482;54.396;18.590;2022-08-19T07:21:51;101107.81;;;24.53;72.29
48606;BME280;8482;54.396;18.590;2022-08-19T07:24:23;101102.59;;;24.58;72.12
48606;BME280;8482;54.396;18.590;2022-08-19T07:26:50;101115.13;;;24.66;71.78
48606;BME280;8482;54.396;18.590;2022-08-19T07:29:17;101118.91;;;24.71;71.25
48606;BME280;8482;54.396;18.590;2022-08-19T07:31:43;101111.41;;;24.73;71.05
48606;BME280;8482;54.396;18.590;2022-08-19T07:34:11;101109.34;;;24.82;70.58
48606;BME280;8482;54.396;18.590;2022-08-19T07:36:41;101110.16;;;24.89;70.25
48606;BME280;8482;54.396;18.590;2022-08-19T07:39:14;101111.84;;;24.97;70.11
48606;BME280;8482;54.396;18.590;2022-08-19T07:41:42;101109.34;;;25.02;70.20
48606;BME280;8482;54.396;18.590;2022-08-19T07:44:09;101102.03;;;25.09;69.84
48606;BME280;8482;54.396;18.590;2022-08-19T07:46:42;101100.56;;;25.14;69.69
48606;BME280;8482;54.396;18.590;2022-08-19T07:49:11;101092.22;;;25.22;69.43
48606;BME280;8482;54.396;18.590;2022-08-19T07:51:44;101092.41;;;25.27;69.42
48606;BME280;8482;54.396;18.590;2022-08-19T07:54:10;101094.91;;;25.35;69.54
48606;BME280;8482;54.396;18.590;2022-08-19T07:56:37;101093.88;;;25.43;69.31
48606;BME280;8482;54.396;18.590;2022-08-19T07:59:03;101096.41;;;25.45;69.30
48606;BME280;8482;54.396;18.590;2022-08-19T08:01:30;101098.25;;;25.51;68.64
48606;BME280;8482;54.396;18.590;2022-08-19T08:03:57;101092.59;;;25.59;68.29
48606;BME280;8482;54.396;18.590;2022-08-19T08:06:42;101095.09;;;25.67;68.40
48606;BME280;8482;54.396;18.590;2022-08-19T08:09:37;101094.00;;;25.75;67.89
48606;BME280;8482;54.396;18.590;2022-08-19T08:12:11;101095.84;;;25.81;67.95
48606;BME280;8482;54.396;18.590;2022-08-19T08:14:47;101094.16;;;25.87;67.39
48606;BME280;8482;54.396;18.590;2022-08-19T08:17:17;101089.56;;;25.94;67.09
48606;BME280;8482;54.396;18.590;2022-08-19T08:19:44;101091.19;;;26.02;66.87
48606;BME280;8482;54.396;18.590;2022-08-19T08:22:15;101090.75;;;26.12;66.53
48606;BME280;8482;54.396;18.590;2022-08-19T08:25:07;101088.59;;;26.21;65.96
48606;BME280;8482;54.396;18.590;2022-08-19T08:27:38;101082.31;;;26.27;66.03
48606;BME280;8482;54.396;18.590;2022-08-19T08:30:12;101075.78;;;26.35;65.63
48606;BME280;8482;54.396;18.590;2022-08-19T08:32:40;101074.31;;;26.39;65.01
48606;BME280;8482;54.396;18.590;2022-08-19T08:35:11;101078.41;;;26.48;64.66
48606;BME280;8482;54.396;18.590;2022-08-19T08:37:38;101074.59;;;26.56;65.37
48606;BME280;8482;54.396;18.590;2022-08-19T08:40:16;101074.56;;;26.62;65.37
48606;BME280;8482;54.396;18.590;2022-08-19T08:42:54;101075.56;;;26.68;65.50
48606;BME280;8482;54.396;18.590;2022-08-19T08:45:27;101084.47;;;26.75;65.91
48606;BME280;8482;54.396;18.590;2022-08-19T08:47:58;101085.50;;;26.81;65.92
48606;BME280;8482;54.396;18.590;2022-08-19T08:50:39;101074.44;;;26.83;66.18
48606;BME280;8482;54.396;18.590;2022-08-19T08:53:08;101082.16;;;26.86;66.45
48606;BME280;8482;54.396;18.590;2022-08-19T08:55:36;101076.25;;;26.89;66.30
48606;BME280;8482;54.396;18.590;2022-08-19T08:58:12;101074.38;;;26.89;66.71
48606;BME280;8482;54.396;18.590;2022-08-19T09:00:47;101074.13;;;26.91;66.64
48606;BME280;8482;54.396;18.590;2022-08-19T09:03:22;101062.38;;;26.97;66.35
48606;BME280;8482;54.396;18.590;2022-08-19T09:06:03;101057.31;;;27.01;66.38
48606;BME280;8482;54.396;18.590;2022-08-19T09:11:15;101063.97;;;27.05;66.09
48606;BME280;8482;54.396;18.590;2022-08-19T09:14:00;101055.34;;;27.08;66.77
48606;BME280;8482;54.396;18.590;2022-08-19T09:16:28;101051.13;;;27.12;66.35
48606;BME280;8482;54.396;18.590;2022-08-19T09:19:02;101061.56;;;27.15;65.64
48606;BME280;8482;54.396;18.590;2022-08-19T09:21:28;101051.28;;;27.17;66.26
48606;BME280;8482;54.396;18.590;2022-08-19T09:23:54;101039.78;;;27.15;66.52
48606;BME280;8482;54.396;18.590;2022-08-19T09:26:22;101054.75;;;27.25;66.76
48606;BME280;8482;54.396;18.590;2022-08-19T09:28:52;101051.22;;;27.24;66.87
48606;BME280;8482;54.396;18.590;2022-08-19T09:31:25;101055.38;;;27.27;66.88
48606;BME280;8482;54.396;18.590;2022-08-19T09:33:53;101057.66;;;27.30;67.25
48606;BME280;8482;54.396;18.590;2022-08-19T09:36:23;101061.56;;;27.34;67.50
48606;BME280;8482;54.396;18.590;2022-08-19T09:38:51;101062.19;;;27.36;67.05
48606;BME280;8482;54.396;18.590;2022-08-19T09:41:21;101047.69;;;27.42;67.42
48606;BME280;8482;54.396;18.590;2022-08-19T09:43:52;101050.56;;;27.47;67.21
48606;BME280;8482;54.396;18.590;2022-08-19T09:46:23;101042.56;;;27.52;66.70
48606;BME280;8482;54.396;18.590;2022-08-19T09:48:50;101041.03;;;27.57;66.23
48606;BME280;8482;54.396;18.590;2022-08-19T09:51:23;101040.34;;;27.61;64.22
48606;BME280;8482;54.396;18.590;2022-08-19T09:53:51;101042.16;;;27.67;62.54
48606;BME280;8482;54.396;18.590;2022-08-19T09:56:21;101043.72;;;27.75;61.09
48606;BME280;8482;54.396;18.590;2022-08-19T09:58:48;101032.53;;;27.83;59.75
48606;BME280;8482;54.396;18.590;2022-08-19T10:01:25;101031.16;;;27.93;58.29
48606;BME280;8482;54.396;18.590;2022-08-19T10:03:55;101025.84;;;27.98;57.45
48606;BME280;8482;54.396;18.590;2022-08-19T10:06:25;101026.97;;;28.09;57.89
48606;BME280;8482;54.396;18.590;2022-08-19T10:08:52;101033.06;;;28.23;57.76
48606;BME280;8482;54.396;18.590;2022-08-19T10:11:19;101026.81;;;28.34;57.19
48606;BME280;8482;54.396;18.590;2022-08-19T10:13:47;101031.69;;;28.44;55.76
48606;BME280;8482;54.396;18.590;2022-08-19T10:16:17;101030.63;;;28.57;54.28
48606;BME280;8482;54.396;18.590;2022-08-19T10:18:45;101022.94;;;28.66;53.61
48606;BME280;8482;54.396;18.590;2022-08-19T10:21:25;101024.16;;;28.82;53.36
48606;BME280;8482;54.396;18.590;2022-08-19T10:23:55;101019.31;;;28.96;52.99
48606;BME280;8482;54.396;18.590;2022-08-19T10:26:28;101005.53;;;29.02;51.84
48606;BME280;8482;54.396;18.590;2022-08-19T10:28:56;101018.09;;;29.15;51.13
48606;BME280;8482;54.396;18.590;2022-08-19T10:31:29;101005.97;;;29.23;50.73
48606;BME280;8482;54.396;18.590;2022-08-19T10:33:56;101002.28;;;29.29;50.07
48606;BME280;8482;54.396;18.590;2022-08-19T10:36:34;101002.19;;;29.36;50.35
48606;BME280;8482;54.396;18.590;2022-08-19T10:39:08;101007.00;;;29.46;49.76
48606;BME280;8482;54.396;18.590;2022-08-19T10:41:38;101002.72;;;29.50;49.19
48606;BME280;8482;54.396;18.590;2022-08-19T10:44:08;100999.38;;;29.60;48.41
48606;BME280;8482;54.396;18.590;2022-08-19T10:46:40;101003.84;;;29.66;47.70
48606;BME280;8482;54.396;18.590;2022-08-19T10:49:09;101007.44;;;29.66;47.68
48606;BME280;8482;54.396;18.590;2022-08-19T10:51:35;100987.81;;;29.70;48.30
48606;BME280;8482;54.396;18.590;2022-08-19T10:54:20;100997.78;;;29.76;47.47
48606;BME280;8482;54.396;18.590;2022-08-19T10:56:46;101006.91;;;29.81;47.49
48606;BME280;8482;54.396;18.590;2022-08-19T10:59:27;100995.00;;;29.88;46.80
48606;BME280;8482;54.396;18.590;2022-08-19T11:01:59;100992.84;;;29.90;46.52
48606;BME280;8482;54.396;18.590;2022-08-19T11:04:26;100983.53;;;29.91;46.51
48606;BME280;8482;54.396;18.590;2022-08-19T11:06:52;100978.22;;;29.96;46.76
48606;BME280;8482;54.396;18.590;2022-08-19T11:09:23;100978.75;;;30.10;46.98
48606;BME280;8482;54.396;18.590;2022-08-19T11:11:53;100974.75;;;30.18;46.57
48606;BME280;8482;54.396;18.590;2022-08-19T11:14:20;100979.56;;;30.27;46.60
48606;BME280;8482;54.396;18.590;2022-08-19T11:16:48;100966.31;;;30.36;46.05
48606;BME280;8482;54.396;18.590;2022-08-19T11:19:16;100964.16;;;30.38;46.09
48606;BME280;8482;54.396;18.590;2022-08-19T11:21:48;100954.75;;;30.51;45.93
48606;BME280;8482;54.396;18.590;2022-08-19T11:24:20;100951.66;;;30.60;46.34
48606;BME280;8482;54.396;18.590;2022-08-19T11:26:48;100946.31;;;30.70;45.01
48606;BME280;8482;54.396;18.590;2022-08-19T11:29:17;100956.59;;;30.80;43.97
48606;BME280;8482;54.396;18.590;2022-08-19T11:31:47;100947.94;;;30.88;44.11
48606;BME280;8482;54.396;18.590;2022-08-19T11:34:19;100950.25;;;30.96;44.25
48606;BME280;8482;54.396;18.590;2022-08-19T11:36:47;100946.97;;;30.99;43.87
48606;BME280;8482;54.396;18.590;2022-08-19T11:39:17;100949.53;;;31.06;44.45
48606;BME280;8482;54.396;18.590;2022-08-19T11:41:43;100944.41;;;31.10;44.86
48606;BME280;8482;54.396;18.590;2022-08-19T11:44:09;100942.59;;;31.15;44.74
48606;BME280;8482;54.396;18.590;2022-08-19T11:46:37;100936.91;;;31.22;44.22
48606;BME280;8482;54.396;18.590;2022-08-19T11:49:05;100941.66;;;31.32;44.24
48606;BME280;8482;54.396;18.590;2022-08-19T11:51:33;100937.41;;;31.41;43.50
48606;BME280;8482;54.396;18.590;2022-08-19T11:54:00;100932.78;;;31.47;43.79
48606;BME280;8482;54.396;18.590;2022-08-19T11:56:27;100927.13;;;31.54;43.86
48606;BME280;8482;54.396;18.590;2022-08-19T11:58:54;100920.34;;;31.61;43.98
48606;BME280;8482;54.396;18.590;2022-08-19T12:01:25;100918.97;;;31.64;43.89
48606;BME280;8482;54.396;18.590;2022-08-19T12:03:54;100905.53;;;31.62;43.89
48606;BME280;8482;54.396;18.590;2022-08-19T12:06:24;100913.31;;;31.71;44.13
48606;BME280;8482;54.396;18.590;2022-08-19T12:08:53;100914.47;;;31.75;43.33
48606;BME280;8482;54.396;18.590;2022-08-19T12:11:19;100916.66;;;31.78;43.45
48606;BME280;8482;54.396;18.590;2022-08-19T12:13:45;100917.31;;;31.85;43.25
48606;BME280;8482;54.396;18.590;2022-08-19T12:16:31;100915.72;;;31.94;43.11
48606;BME280;8482;54.396;18.590;2022-08-19T12:18:59;100900.97;;;32.01;42.76
48606;BME280;8482;54.396;18.590;2022-08-19T12:21:31;100900.75;;;32.07;42.43
48606;BME280;8482;54.396;18.590;2022-08-19T12:23:59;100896.38;;;32.12;43.03
48606;BME280;8482;54.396;18.590;2022-08-19T12:26:27;100905.75;;;32.16;42.80
48606;BME280;8482;54.396;18.590;2022-08-19T12:28:54;100896.44;;;32.17;42.56
48606;BME280;8482;54.396;18.590;2022-08-19T12:31:20;100889.84;;;32.18;42.32
48606;BME280;8482;54.396;18.590;2022-08-19T12:33:47;100894.78;;;32.16;42.04
48606;BME280;8482;54.396;18.590;2022-08-19T12:36:15;100894.50;;;32.17;42.02
48606;BME280;8482;54.396;18.590;2022-08-19T12:38:43;100902.22;;;32.20;41.13
48606;BME280;8482;54.396;18.590;2022-08-19T12:41:13;100894.25;;;32.24;41.25
48606;BME280;8482;54.396;18.590;2022-08-19T12:43:39;100888.56;;;32.25;41.16
48606;BME280;8482;54.396;18.590;2022-08-19T12:46:07;100884.44;;;32.28;40.96
48606;BME280;8482;54.396;18.590;2022-08-19T12:48:34;100878.16;;;32.33;40.66
48606;BME280;8482;54.396;18.590;2022-08-19T12:51:05;100873.81;;;32.37;40.99
48606;BME280;8482;54.396;18.590;2022-08-19T12:53:31;100874.13;;;32.46;40.43
48606;BME280;8482;54.396;18.590;2022-08-19T12:55:58;100872.25;;;32.56;39.36
48606;BME280;8482;54.396;18.590;2022-08-19T12:58:26;100872.00;;;32.63;38.99
48606;BME280;8482;54.396;18.590;2022-08-19T13:00:52;100867.94;;;32.71;38.40
48606;BME280;8482;54.396;18.590;2022-08-19T13:03:18;100856.41;;;32.74;37.98
48606;BME280;8482;54.396;18.590;2022-08-19T13:05:44;100849.84;;;32.75;38.40
48606;BME280;8482;54.396;18.590;2022-08-19T13:08:10;100859.69;;;32.71;38.42
48606;BME280;8482;54.396;18.590;2022-08-19T13:10:37;100841.81;;;32.63;38.39